M I D A S
Marine Information and Data Acquisition System
Tripno 1952 of the Zeeleeuw from 2010-09-03 06:50:40 to 2010-09-03 18:15:48
Back to CruiseResearch ActivitiesStationsMapUnderway DataData graphs

EquipmentUnitsComment
TimeDGPSUTC
LatitudeDGPSDM.mWGS84
LongitudeDGPSDM.mWGS84
HeadingGyrodeg 
SOGDGPSknotsSpeed over ground
COGDGPSdegCourse over ground
DepthEcho soundermeters200 kHz
Missing or incorrect values are displayed as -999
Navigation data collected by the RV Zeeleeuw from 2010-09-03 06:10:24 to 2010-09-03 18:27:01
                                                                                    Next 1000 lines
Time Latitude Longitude Heading SOG COG Depth
2010-09-03 06:10:34 51°13.663 2°55.961 126 -999 28 -999
2010-09-03 06:10:39 51°13.662 2°55.96 125.7 0.1 258 -999
2010-09-03 06:10:44 51°13.662 2°55.96 125.7 0.1 244 -999
2010-09-03 06:10:49 51°13.662 2°55.96 125.6 -999 185 -999
2010-09-03 06:10:54 51°13.662 2°55.96 125.6 0.1 70 -999
2010-09-03 06:10:59 51°13.662 2°55.96 125.6 -999 39 7.8
2010-09-03 06:11:03 51°13.662 2°55.96 125.6 -999 304 7.8
2010-09-03 06:11:08 51°13.662 2°55.96 125.6 -999 348 7.8
2010-09-03 06:11:13 51°13.662 2°55.96 125.6 -999 84 7.8
2010-09-03 06:11:18 51°13.662 2°55.959 125.6 -999 221 7.8
2010-09-03 06:11:23 51°13.662 2°55.959 125.7 0.1 215 7.8
2010-09-03 06:11:28 51°13.662 2°55.959 125.8 0.1 254 7.8
2010-09-03 06:11:33 51°13.662 2°55.959 125.9 -999 235 7.9
2010-09-03 06:11:38 51°13.662 2°55.959 126 0.1 63 7.8
2010-09-03 06:11:42 51°13.662 2°55.959 126.2 0.1 60 7.8
2010-09-03 06:11:47 51°13.662 2°55.96 126.3 0.1 54 7.8
2010-09-03 06:11:52 51°13.662 2°55.96 126.3 -999 55 7.8
2010-09-03 06:11:57 51°13.662 2°55.959 126.3 -999 249 7.8
2010-09-03 06:12:02 51°13.662 2°55.96 126.3 -999 212 7.9
2010-09-03 06:12:07 51°13.662 2°55.96 126.3 0.1 54 8
2010-09-03 06:12:11 51°13.662 2°55.96 126.3 -999 261 7.8
2010-09-03 06:12:17 51°13.662 2°55.96 126.3 -999 254 7.8
2010-09-03 06:12:21 51°13.662 2°55.96 126.2 -999 36 7.8
2010-09-03 06:12:26 51°13.662 2°55.96 126.1 0.1 19 7.9
2010-09-03 06:12:31 51°13.662 2°55.96 126.1 -999 22 7.8
2010-09-03 06:12:36 51°13.662 2°55.96 126 0.1 65 7.9
2010-09-03 06:12:41 51°13.662 2°55.96 125.9 0.1 67 7.9
2010-09-03 06:12:46 51°13.662 2°55.96 125.7 -999 277 7.8
2010-09-03 06:12:50 51°13.662 2°55.96 125.7 0.1 259 7.9
2010-09-03 06:12:55 51°13.662 2°55.96 125.7 -999 227 7.8
2010-09-03 06:13:00 51°13.662 2°55.96 125.7 -999 18 7.8
2010-09-03 06:13:06 51°13.662 2°55.96 125.7 -999 274 7.8
2010-09-03 06:13:10 51°13.662 2°55.96 125.8 -999 278 7.8
2010-09-03 06:13:15 51°13.662 2°55.96 125.9 -999 233 7.8
2010-09-03 06:13:20 51°13.662 2°55.96 125.9 -999 180 7.8
2010-09-03 06:13:26 51°13.662 2°55.96 126.1 -999 93 7.8
2010-09-03 06:13:30 51°13.662 2°55.96 126.3 0.1 34 7.9
2010-09-03 06:13:35 51°13.662 2°55.96 126.4 0.1 25 7.8
2010-09-03 06:13:40 51°13.662 2°55.96 126.4 -999 235 7.8
2010-09-03 06:13:46 51°13.662 2°55.96 126.4 0.1 231 7.8
2010-09-03 06:13:50 51°13.662 2°55.96 126.4 -999 318 7.8
2010-09-03 06:13:55 51°13.662 2°55.96 126.4 0.1 25 7.8
2010-09-03 06:14:01 51°13.662 2°55.96 126.4 -999 316 7.8
2010-09-03 06:14:06 51°13.662 2°55.96 126.2 -999 308 7.8
2010-09-03 06:14:10 51°13.662 2°55.96 126 -999 340 7.9
2010-09-03 06:14:15 51°13.662 2°55.96 125.7 -999 259 7.9
2010-09-03 06:14:20 51°13.662 2°55.96 125.7 0.1 243 8
2010-09-03 06:14:25 51°13.662 2°55.96 125.7 -999 333 7.8
2010-09-03 06:14:30 51°13.662 2°55.96 125.7 -999 276 7.8
2010-09-03 06:14:35 51°13.662 2°55.96 125.7 -999 268 7.8
2010-09-03 06:14:40 51°13.662 2°55.96 125.7 -999 21 7.9
2010-09-03 06:14:45 51°13.662 2°55.96 125.7 -999 257 7.8
2010-09-03 06:14:50 51°13.662 2°55.96 125.7 -999 29 7.9
2010-09-03 06:14:55 51°13.662 2°55.96 125.7 -999 310 7.8
2010-09-03 06:15:00 51°13.662 2°55.96 125.7 -999 356 7.9
2010-09-03 06:15:06 51°13.662 2°55.96 125.7 -999 34 7.9
2010-09-03 06:15:10 51°13.662 2°55.96 125.7 -999 340 7.8
2010-09-03 06:15:16 51°13.662 2°55.96 125.7 -999 322 7.8
2010-09-03 06:15:20 51°13.662 2°55.96 125.6 0.1 347 7.8
2010-09-03 06:15:25 51°13.662 2°55.96 125.6 -999 342 7.9
2010-09-03 06:15:30 51°13.662 2°55.96 125.6 -999 19 -999
2010-09-03 06:15:36 51°13.662 2°55.96 125.6 -999 65 7.9
2010-09-03 06:15:41 51°13.662 2°55.959 125.7 0.1 232 7.9
2010-09-03 06:15:46 51°13.662 2°55.959 125.7 0.1 234 7.8
2010-09-03 06:15:50 51°13.662 2°55.96 125.7 -999 74 -999
2010-09-03 06:15:54 51°13.662 2°55.96 125.7 -999 60 7.8
2010-09-03 06:16:01 51°13.662 2°55.96 125.8 -999 222 7.8
2010-09-03 06:16:06 51°13.662 2°55.96 125.8 0.1 213 7.8
2010-09-03 06:16:10 51°13.662 2°55.96 125.9 0.1 209 7.8
2010-09-03 06:16:15 51°13.662 2°55.959 126.1 0.1 266 7.8
2010-09-03 06:16:20 51°13.662 2°55.96 126.1 0.1 251 7.8
2010-09-03 06:16:26 51°13.662 2°55.96 126.1 0.1 214 7.8
2010-09-03 06:16:30 51°13.662 2°55.96 126.1 -999 44 7.9
2010-09-03 06:16:34 51°13.662 2°55.96 126.2 0.1 311 7.8
2010-09-03 06:16:40 51°13.662 2°55.96 126 0.1 351 7.9
2010-09-03 06:16:46 51°13.662 2°55.96 125.9 -999 7 7.8
2010-09-03 06:16:50 51°13.662 2°55.96 125.8 -999 64 7.8
2010-09-03 06:16:55 51°13.662 2°55.96 125.7 -999 112 7.8
2010-09-03 06:17:00 51°13.662 2°55.96 125.7 -999 221 7.8
2010-09-03 06:17:05 51°13.662 2°55.96 125.7 0.1 241 7.8
2010-09-03 06:17:10 51°13.662 2°55.96 125.7 0.1 251 7.8
2010-09-03 06:17:15 51°13.662 2°55.96 125.7 -999 33 7.8
2010-09-03 06:17:20 51°13.662 2°55.96 125.8 -999 55 7.8
2010-09-03 06:17:25 51°13.662 2°55.96 125.8 -999 50 7.8
2010-09-03 06:17:30 51°13.662 2°55.96 125.8 -999 51 7.8
2010-09-03 06:17:35 51°13.662 2°55.96 125.8 0.1 248 7.8
2010-09-03 06:17:40 51°13.662 2°55.96 125.8 0.1 225 7.8
2010-09-03 06:17:46 51°13.662 2°55.96 125.8 -999 1 7.7
2010-09-03 06:17:50 51°13.662 2°55.96 125.7 -999 14 7.7
2010-09-03 06:17:55 51°13.662 2°55.96 125.7 0.1 232 7.8
2010-09-03 06:18:01 51°13.662 2°55.96 125.7 0.1 229 7.9
2010-09-03 06:18:06 51°13.662 2°55.961 125.7 0.1 47 7.8
2010-09-03 06:18:10 51°13.662 2°55.96 125.7 -999 232 7.9
2010-09-03 06:18:15 51°13.662 2°55.96 125.7 -999 13 7.8
2010-09-03 06:18:20 51°13.662 2°55.961 125.7 -999 40 7.8
2010-09-03 06:18:26 51°13.662 2°55.96 125.7 0.1 215 7.8
2010-09-03 06:18:30 51°13.662 2°55.96 125.6 -999 219 7.8
2010-09-03 06:18:35 51°13.662 2°55.961 125.5 -999 49 7.9
2010-09-03 06:18:40 51°13.662 2°55.961 125.4 -999 134 8.1
2010-09-03 06:18:46 51°13.662 2°55.961 125.4 -999 34 7.8
2010-09-03 06:18:50 51°13.662 2°55.961 125.4 -999 75 7.8
2010-09-03 06:18:54 51°13.662 2°55.961 125.4 -999 136 7.9
2010-09-03 06:19:00 51°13.662 2°55.96 125.4 0.1 227 7.8
2010-09-03 06:19:06 51°13.662 2°55.96 125.4 0.1 229 7.8
2010-09-03 06:19:10 51°13.662 2°55.96 125.5 -999 207 7.8
2010-09-03 06:19:16 51°13.662 2°55.96 125.5 0.1 206 7.8
2010-09-03 06:19:21 51°13.662 2°55.961 125.5 -999 151 7.8
2010-09-03 06:19:26 51°13.662 2°55.96 125.5 -999 257 7.9
2010-09-03 06:19:30 51°13.662 2°55.96 125.5 -999 224 7.8
2010-09-03 06:19:35 51°13.662 2°55.961 125.5 0.1 45 7.8
2010-09-03 06:19:40 51°13.662 2°55.961 125.5 0.1 333 7.9
2010-09-03 06:19:46 51°13.662 2°55.961 125.5 -999 315 7.8
2010-09-03 06:19:50 51°13.662 2°55.961 125.5 0.1 26 7.8
2010-09-03 06:19:55 51°13.662 2°55.961 125.5 -999 312 7.8
2010-09-03 06:20:00 51°13.662 2°55.961 125.5 -999 280 7.8
2010-09-03 06:20:06 51°13.662 2°55.961 125.5 -999 226 7.8
2010-09-03 06:20:10 51°13.662 2°55.961 125.5 -999 49 7.8
2010-09-03 06:20:16 51°13.662 2°55.961 125.5 -999 40 -999
2010-09-03 06:20:21 51°13.662 2°55.961 125.5 0.1 38 7.8
2010-09-03 06:20:26 51°13.662 2°55.961 125.5 -999 76 -999
2010-09-03 06:20:31 51°13.662 2°55.961 125.5 0.1 214 7.8
2010-09-03 06:20:36 51°13.662 2°55.961 125.5 -999 242 -999
2010-09-03 06:20:42 51°13.662 2°55.961 125.5 -999 286 -999
2010-09-03 06:20:47 51°13.662 2°55.961 125.5 -999 236 7.8
2010-09-03 06:20:52 51°13.662 2°55.961 125.5 -999 90 7.8
2010-09-03 06:20:58 51°13.662 2°55.961 125.5 -999 232 -999
2010-09-03 06:21:02 51°13.662 2°55.961 125.5 -999 74 7.8
2010-09-03 06:21:08 51°13.662 2°55.961 125.4 -999 107 7.8
2010-09-03 06:21:13 51°13.662 2°55.96 125.4 0.1 261 -999
2010-09-03 06:21:18 51°13.662 2°55.961 125.4 0.1 49 7.8
2010-09-03 06:21:23 51°13.662 2°55.961 125.4 0.1 74 -999
2010-09-03 06:21:29 51°13.662 2°55.961 125.4 0.1 40 7.8
2010-09-03 06:21:34 51°13.662 2°55.961 125.4 0.2 73 7.8
2010-09-03 06:21:39 51°13.662 2°55.961 125.4 0.1 87 7.8
2010-09-03 06:21:44 51°13.662 2°55.961 125.5 0.1 69 7.7
2010-09-03 06:21:49 51°13.662 2°55.96 125.5 -999 8 7.7
2010-09-03 06:21:54 51°13.662 2°55.96 125.5 -999 121 -999
2010-09-03 06:21:59 51°13.663 2°55.961 125.5 -999 117 7.7
2010-09-03 06:22:04 51°13.663 2°55.961 125.5 -999 86 7.7
2010-09-03 06:22:09 51°13.663 2°55.96 125.5 -999 126 -999
2010-09-03 06:22:14 51°13.663 2°55.961 125.5 0.1 70 7.8
2010-09-03 06:22:19 51°13.663 2°55.961 125.5 0.1 53 7.8
2010-09-03 06:22:24 51°13.663 2°55.961 125.5 -999 71 -999
2010-09-03 06:22:29 51°13.662 2°55.96 125.5 -999 271 7.8
2010-09-03 06:22:34 51°13.663 2°55.96 125.5 -999 277 7.8
2010-09-03 06:22:38 51°13.663 2°55.96 125.4 -999 23 7.8
2010-09-03 06:22:44 51°13.663 2°55.96 125.4 -999 94 7.8
2010-09-03 06:22:49 51°13.663 2°55.96 125.4 -999 102 7.9
2010-09-03 06:22:54 51°13.663 2°55.96 125.4 -999 149 7.8
2010-09-03 06:22:58 51°13.663 2°55.96 125.4 -999 136 7.8
2010-09-03 06:23:03 51°13.663 2°55.96 125.7 0.1 147 -999
2010-09-03 06:23:09 51°13.662 2°55.96 125.9 0.1 115 7.8
2010-09-03 06:23:14 51°13.662 2°55.96 126.3 0.1 134 7.9
2010-09-03 06:23:18 51°13.662 2°55.96 126.7 -999 43 7.8
2010-09-03 06:23:23 51°13.662 2°55.96 127.1 0.1 280 7.9
2010-09-03 06:23:28 51°13.662 2°55.96 127.3 0.1 265 7.8
2010-09-03 06:23:33 51°13.662 2°55.96 127.3 0.1 232 7.8
2010-09-03 06:23:38 51°13.662 2°55.96 127.2 -999 220 8
2010-09-03 06:23:43 51°13.662 2°55.96 127.2 -999 348 -999
2010-09-03 06:23:48 51°13.662 2°55.96 127.2 -999 318 7.9
2010-09-03 06:23:53 51°13.662 2°55.96 127.1 -999 246 7.9
2010-09-03 06:23:58 51°13.662 2°55.96 127.1 -999 237 7.8
2010-09-03 06:24:02 51°13.662 2°55.96 126.9 -999 278 7.8
2010-09-03 06:24:07 51°13.662 2°55.96 126.8 0.1 275 7.8
2010-09-03 06:24:12 51°13.662 2°55.961 126.6 -999 337 7.8
2010-09-03 06:24:17 51°13.662 2°55.96 126.4 0.1 310 7.8
2010-09-03 06:24:22 51°13.662 2°55.96 126.2 0.1 357 7.8
2010-09-03 06:24:27 51°13.662 2°55.96 126.1 0.1 271 7.8
2010-09-03 06:24:31 51°13.662 2°55.96 126.1 -999 74 7.8
2010-09-03 06:24:37 51°13.662 2°55.96 126.3 0.1 92 7.8
2010-09-03 06:24:42 51°13.662 2°55.96 126.6 0.1 168 7.8
2010-09-03 06:24:46 51°13.662 2°55.96 126.8 0.1 181 7.8
2010-09-03 06:24:51 51°13.662 2°55.96 127.1 -999 6 7.8
2010-09-03 06:24:56 51°13.662 2°55.96 127.3 -999 279 7.9
2010-09-03 06:25:01 51°13.662 2°55.96 127.3 -999 63 7.8
2010-09-03 06:25:06 51°13.662 2°55.96 127.2 -999 170 7.9
2010-09-03 06:25:10 51°13.662 2°55.96 127.2 -999 193 -999
2010-09-03 06:25:15 51°13.662 2°55.96 127.2 0.1 248 7.8
2010-09-03 06:25:20 51°13.662 2°55.96 127.2 0.1 4 7.8
2010-09-03 06:25:26 51°13.662 2°55.96 127.2 0.2 254 7.8
2010-09-03 06:25:30 51°13.662 2°55.961 127.2 -999 39 7.8
2010-09-03 06:25:35 51°13.662 2°55.961 127.2 -999 77 7.8
2010-09-03 06:25:40 51°13.662 2°55.96 127.5 0.1 254 7.8
2010-09-03 06:25:45 51°13.662 2°55.96 127.7 0.2 249 7.8
2010-09-03 06:25:50 51°13.662 2°55.961 127.9 -999 241 7.9
2010-09-03 06:25:55 51°13.662 2°55.961 128.3 0.1 56 7.8
2010-09-03 06:26:00 51°13.663 2°55.961 128.6 -999 17 7.8
2010-09-03 06:26:05 51°13.663 2°55.961 128.8 -999 246 7.8
2010-09-03 06:26:10 51°13.662 2°55.96 129 0.1 237 8.2
2010-09-03 06:26:15 51°13.662 2°55.96 129.2 0.1 271 8
2010-09-03 06:26:20 51°13.662 2°55.96 129.3 -999 70 7.8
2010-09-03 06:26:26 51°13.662 2°55.96 129.5 -999 119 7.8
2010-09-03 06:26:30 51°13.662 2°55.96 129.7 0.1 252 7.8
2010-09-03 06:26:36 51°13.662 2°55.96 129.9 -999 241 7.9
2010-09-03 06:26:41 51°13.662 2°55.96 130 0.1 233 7.9
2010-09-03 06:26:46 51°13.662 2°55.96 130.1 0.1 276 8
2010-09-03 06:26:50 51°13.662 2°55.96 130.2 -999 271 7.9
2010-09-03 06:26:55 51°13.662 2°55.96 130.4 -999 98 -999
2010-09-03 06:27:00 51°13.662 2°55.96 130.6 0.1 247 7.9
2010-09-03 06:27:06 51°13.662 2°55.96 130.6 0.1 274 7.9
2010-09-03 06:27:10 51°13.662 2°55.959 130.6 0.1 277 7.9
2010-09-03 06:27:15 51°13.662 2°55.96 130.7 0.1 107 8
2010-09-03 06:27:21 51°13.662 2°55.96 130.6 0.1 214 -999
2010-09-03 06:27:26 51°13.662 2°55.96 130 -999 197 8
2010-09-03 06:27:30 51°13.662 2°55.96 129.2 0.1 95 7.8
2010-09-03 06:27:35 51°13.662 2°55.96 127.8 0.1 76 7.8
2010-09-03 06:27:40 51°13.662 2°55.961 126.4 0.2 77 7.9
2010-09-03 06:27:46 51°13.662 2°55.961 124.1 0.1 192 7.8
2010-09-03 06:27:50 51°13.662 2°55.961 122 0.1 293 7.8
2010-09-03 06:27:56 51°13.662 2°55.961 121.2 0.1 200 7.8
2010-09-03 06:28:01 51°13.662 2°55.961 120.4 0.1 107 7.8
2010-09-03 06:28:06 51°13.662 2°55.961 119.5 -999 168 7.8
2010-09-03 06:28:10 51°13.662 2°55.961 118.5 0.1 240 7.8
2010-09-03 06:28:15 51°13.662 2°55.961 117.4 -999 166 7.8
2010-09-03 06:28:20 51°13.662 2°55.96 116.4 0.1 229 7.8
2010-09-03 06:28:26 51°13.661 2°55.961 115.6 0.1 158 7.8
2010-09-03 06:28:30 51°13.661 2°55.961 114.6 0.1 165 7.8
2010-09-03 06:28:35 51°13.661 2°55.96 113.7 0.1 226 7.8
2010-09-03 06:28:40 51°13.661 2°55.96 112.6 0.1 221 7.9
2010-09-03 06:28:46 51°13.661 2°55.96 111.7 0.1 276 7.9
2010-09-03 06:28:50 51°13.661 2°55.96 111.1 0.2 271 8
2010-09-03 06:28:55 51°13.661 2°55.959 110.4 0.4 287 7.9
2010-09-03 06:29:01 51°13.661 2°55.958 110.2 0.5 291 7.9
2010-09-03 06:29:06 51°13.661 2°55.956 110.1 0.8 287 7.9
2010-09-03 06:29:10 51°13.662 2°55.954 110 1.1 288 8
2010-09-03 06:29:15 51°13.663 2°55.951 110.1 1.4 292 8.1
2010-09-03 06:29:20 51°13.663 2°55.948 110.5 1.6 292 8.2
2010-09-03 06:29:26 51°13.664 2°55.943 111 1.9 290 6.3
2010-09-03 06:29:30 51°13.665 2°55.94 111.6 2.1 292 -999
2010-09-03 06:29:36 51°13.667 2°55.935 112.5 2.3 295 4.6
2010-09-03 06:29:42 51°13.669 2°55.929 113.2 2.4 297 -999
2010-09-03 06:29:48 51°13.671 2°55.923 113.8 2.6 297 -999
2010-09-03 06:29:53 51°13.672 2°55.917 114.3 2.7 298 -999
2010-09-03 06:29:59 51°13.674 2°55.911 114.5 2.8 297 -999
2010-09-03 06:30:04 51°13.676 2°55.905 114.4 2.9 296 -999
2010-09-03 06:30:09 51°13.678 2°55.898 113.9 3.1 295 -999
2010-09-03 06:30:14 51°13.68 2°55.892 113.1 3.1 296 -999
2010-09-03 06:30:19 51°13.682 2°55.886 112.3 3.2 296 -999
2010-09-03 06:30:24 51°13.684 2°55.879 111.4 3.3 294 -999
2010-09-03 06:30:29 51°13.686 2°55.872 110.5 3.4 294 -999
2010-09-03 06:30:34 51°13.688 2°55.866 109.7 3.4 293 -999
2010-09-03 06:30:39 51°13.69 2°55.858 109 3.5 292 -999
2010-09-03 06:30:44 51°13.691 2°55.851 108 3.5 291 -999
2010-09-03 06:30:49 51°13.692 2°55.845 106.8 3.4 290 -999
2010-09-03 06:30:54 51°13.694 2°55.838 105.4 3.4 291 -999
2010-09-03 06:30:59 51°13.695 2°55.83 103.9 3.5 287 -999
2010-09-03 06:31:04 51°13.697 2°55.822 102.3 3.5 286 -999
2010-09-03 06:31:09 51°13.698 2°55.815 100.6 3.5 284 -999
2010-09-03 06:31:14 51°13.699 2°55.807 98.8 3.6 282 -999
2010-09-03 06:31:19 51°13.7 2°55.799 97.1 3.6 281 -999
2010-09-03 06:31:24 51°13.7 2°55.792 95.5 3.4 279 -999
2010-09-03 06:31:29 51°13.701 2°55.784 94 3.4 278 -999
2010-09-03 06:31:34 51°13.701 2°55.777 92.8 3.2 277 -999
2010-09-03 06:31:39 51°13.702 2°55.77 92 3.1 276 -999
2010-09-03 06:31:44 51°13.702 2°55.764 91.5 2.9 276 -999
2010-09-03 06:31:49 51°13.703 2°55.758 91 2.8 276 15.6
2010-09-03 06:31:54 51°13.703 2°55.752 90.8 2.7 276 15.7
2010-09-03 06:31:58 51°13.704 2°55.748 90.5 2.3 275 15.6
2010-09-03 06:32:03 51°13.704 2°55.743 90.2 1.9 276 14.9
2010-09-03 06:32:08 51°13.704 2°55.741 88.7 1.2 280 14.6
2010-09-03 06:32:13 51°13.704 2°55.739 86.2 0.7 291 14.6
2010-09-03 06:32:18 51°13.705 2°55.738 82.8 0.4 317 14.8
2010-09-03 06:32:22 51°13.705 2°55.739 78.2 0.4 17 14.9
2010-09-03 06:32:28 51°13.706 2°55.74 72 0.8 41 14.8
2010-09-03 06:32:32 51°13.707 2°55.742 67.3 1.1 49 14.9
2010-09-03 06:32:37 51°13.708 2°55.744 60.9 1.3 48 15
2010-09-03 06:32:42 51°13.709 2°55.746 54.2 1.2 41 15.4
2010-09-03 06:32:47 51°13.71 2°55.747 48.6 1 43 15.6
2010-09-03 06:32:52 51°13.711 2°55.748 44.9 0.6 37 15.5
2010-09-03 06:32:57 51°13.711 2°55.748 40.8 0.3 33 15.3
2010-09-03 06:33:02 51°13.711 2°55.748 38.3 0.1 245 15.3
2010-09-03 06:33:06 51°13.711 2°55.748 34.7 0.3 222 15.3
2010-09-03 06:33:11 51°13.71 2°55.747 32.7 0.6 216 15.5
2010-09-03 06:33:16 51°13.709 2°55.746 30 0.9 210 15.5
2010-09-03 06:33:21 51°13.708 2°55.745 28.4 1.1 209 15.5
2010-09-03 06:33:26 51°13.707 2°55.744 26 1.1 211 15.1
2010-09-03 06:33:30 51°13.706 2°55.743 24.5 1.1 209 -999
2010-09-03 06:33:36 51°13.704 2°55.742 22.7 0.8 210 -999
2010-09-03 06:33:42 51°13.704 2°55.742 20.8 0.3 209 4.7
2010-09-03 06:33:47 51°13.704 2°55.742 18.6 0.2 347 14.9
2010-09-03 06:33:51 51°13.705 2°55.742 14.7 0.6 6 14.9
2010-09-03 06:33:57 51°13.706 2°55.742 11 1 1 15
2010-09-03 06:34:02 51°13.708 2°55.742 5.9 1.4 359 4.8
2010-09-03 06:34:06 51°13.71 2°55.741 358.6 1.8 353 4.8
2010-09-03 06:34:11 51°13.713 2°55.741 353.3 2 349 4.9
2010-09-03 06:34:16 51°13.715 2°55.739 347 2.1 344 15.2
2010-09-03 06:34:21 51°13.718 2°55.738 341.9 2.2 341 15
2010-09-03 06:34:26 51°13.721 2°55.736 337.7 2.3 337 14.8
2010-09-03 06:34:30 51°13.724 2°55.734 334.5 2.6 335 14.6
2010-09-03 06:34:36 51°13.728 2°55.731 332.1 3.1 333 14.5
2010-09-03 06:34:40 51°13.732 2°55.728 330.5 3.6 333 14
2010-09-03 06:34:46 51°13.738 2°55.722 329.7 4.3 330 13.9
2010-09-03 06:34:50 51°13.743 2°55.718 329.3 4.8 330 13.7
2010-09-03 06:34:55 51°13.749 2°55.712 329.2 5.4 328 13.1
2010-09-03 06:35:00 51°13.756 2°55.705 328.9 5.9 327 13.2
2010-09-03 06:35:05 51°13.763 2°55.697 328.4 6.4 325 13.3
2010-09-03 06:35:10 51°13.771 2°55.688 327.9 6.8 326 13.1
2010-09-03 06:35:15 51°13.779 2°55.68 328.4 7.1 327 13.5
2010-09-03 06:35:20 51°13.788 2°55.671 329.9 7.3 329 13.3
2010-09-03 06:35:26 51°13.799 2°55.662 331.3 7.6 330 13.3
2010-09-03 06:35:30 51°13.807 2°55.655 332.2 7.8 331 13.4
2010-09-03 06:35:36 51°13.819 2°55.646 333.3 8 334 13.5
2010-09-03 06:35:40 51°13.827 2°55.639 334.6 8.2 334 13.4
2010-09-03 06:35:45 51°13.837 2°55.631 334.9 8.3 334 13.3
2010-09-03 06:35:50 51°13.848 2°55.623 335.2 8.5 335 13.2
2010-09-03 06:35:55 51°13.859 2°55.616 335.5 8.6 336 13.1
2010-09-03 06:36:00 51°13.87 2°55.607 335.5 8.6 335 13
2010-09-03 06:36:06 51°13.883 2°55.597 335.5 8.7 335 12.5
2010-09-03 06:36:10 51°13.891 2°55.59 335.2 8.8 334 12.6
2010-09-03 06:36:14 51°13.9 2°55.583 334.7 8.9 334 12.6
2010-09-03 06:36:21 51°13.916 2°55.571 334.7 8.9 333 12.8
2010-09-03 06:36:26 51°13.927 2°55.562 334.6 8.9 334 12.6
2010-09-03 06:36:30 51°13.936 2°55.555 334.8 9 334 12.8
2010-09-03 06:36:34 51°13.945 2°55.549 334.7 9 334 12.7
2010-09-03 06:36:40 51°13.958 2°55.538 334.4 9.1 334 12.6
2010-09-03 06:36:46 51°13.972 2°55.528 335.2 9 336 12.6
2010-09-03 06:36:50 51°13.981 2°55.522 335.6 9.1 336 12.6
2010-09-03 06:36:55 51°13.992 2°55.513 335.6 9.1 336 12.5
2010-09-03 06:37:00 51°14.004 2°55.505 336.2 9.1 336 12.5
2010-09-03 06:37:06 51°14.017 2°55.494 336.7 9 335 12.4
2010-09-03 06:37:10 51°14.026 2°55.487 336.7 9.1 334 12.2
2010-09-03 06:37:15 51°14.038 2°55.479 336.1 9.1 336 12.1
2010-09-03 06:37:20 51°14.05 2°55.47 336.1 9.2 335 12.3
2010-09-03 06:37:26 51°14.063 2°55.461 336.4 9.1 337 12.3
2010-09-03 06:37:30 51°14.073 2°55.454 337.5 9.1 337 12.3
2010-09-03 06:37:35 51°14.084 2°55.446 337.6 9.2 337 12.3
2010-09-03 06:37:40 51°14.096 2°55.439 337.3 9.2 337 12.3
2010-09-03 06:37:46 51°14.11 2°55.429 337.4 9.1 338 12.5
2010-09-03 06:37:50 51°14.119 2°55.422 337.6 9.2 337 12.3
2010-09-03 06:37:56 51°14.133 2°55.412 337.2 9.1 336 12.2
2010-09-03 06:38:00 51°14.142 2°55.406 337 9.1 336 12.3
2010-09-03 06:38:06 51°14.156 2°55.396 337 9.1 337 12.3
2010-09-03 06:38:10 51°14.166 2°55.389 337.1 9.1 336 12.3
2010-09-03 06:38:15 51°14.177 2°55.38 336.9 9.2 336 12.3
2010-09-03 06:38:20 51°14.189 2°55.372 337 9.2 335 12.4
2010-09-03 06:38:26 51°14.203 2°55.363 336.9 9.2 336 12.6
2010-09-03 06:38:30 51°14.212 2°55.356 336.5 9.2 336 12.3
2010-09-03 06:38:35 51°14.223 2°55.347 335.8 9.2 335 12.2
2010-09-03 06:38:40 51°14.235 2°55.339 335.8 9.2 336 12.1
2010-09-03 06:38:46 51°14.249 2°55.328 335.8 9.2 334 12.2
2010-09-03 06:38:50 51°14.258 2°55.321 335.4 9.2 335 12.1
2010-09-03 06:38:55 51°14.269 2°55.312 335 9.2 334 11.9
2010-09-03 06:39:00 51°14.281 2°55.303 334.9 9.3 333 12.1
2010-09-03 06:39:05 51°14.292 2°55.294 334.3 9.2 333 12.2
2010-09-03 06:39:10 51°14.304 2°55.285 333.8 9.2 334 12.2
2010-09-03 06:39:15 51°14.315 2°55.275 333.4 9.3 332 12.2
2010-09-03 06:39:20 51°14.327 2°55.266 332.4 9.2 332 12.2
2010-09-03 06:39:25 51°14.338 2°55.255 331.3 9.3 330 11.7
2010-09-03 06:39:30 51°14.349 2°55.244 330.4 9.3 329 12
2010-09-03 06:39:36 51°14.362 2°55.231 329.6 9.3 328 12
2010-09-03 06:39:40 51°14.371 2°55.223 329.2 9.3 328 12.4
2010-09-03 06:39:45 51°14.381 2°55.212 328.8 9.2 327 12.3
2010-09-03 06:39:50 51°14.392 2°55.2 328.3 9.3 326 12.5
2010-09-03 06:39:55 51°14.402 2°55.188 327.4 9.3 325 12.3
2010-09-03 06:40:00 51°14.413 2°55.177 326.2 9.2 324 12.4
2010-09-03 06:40:06 51°14.425 2°55.162 324.7 9.2 323 12.5
2010-09-03 06:40:10 51°14.433 2°55.152 323.1 9.1 321 12.3
2010-09-03 06:40:16 51°14.444 2°55.136 321.5 9.2 320 12.2
2010-09-03 06:40:20 51°14.452 2°55.126 320.5 9.2 320 12.1
2010-09-03 06:40:26 51°14.463 2°55.11 320.3 9.1 319 12.5
2010-09-03 06:40:30 51°14.471 2°55.099 320.3 9.2 319 12.6
2010-09-03 06:40:35 51°14.481 2°55.086 320.7 9.2 320 12.7
2010-09-03 06:40:40 51°14.491 2°55.073 321.3 9.2 322 12.6
2010-09-03 06:40:46 51°14.503 2°55.059 322.3 9.2 323 12.7
2010-09-03 06:40:50 51°14.511 2°55.05 323.5 9.2 325 12.8
2010-09-03 06:40:55 51°14.522 2°55.038 324.8 9.2 326 12.8
2010-09-03 06:41:00 51°14.533 2°55.027 326.4 9.2 328 12.9
2010-09-03 06:41:06 51°14.546 2°55.014 327.4 9.3 330 12.9
2010-09-03 06:41:10 51°14.556 2°55.006 328 9.3 331 12.9
2010-09-03 06:41:15 51°14.567 2°54.997 328.5 9.4 333 12.9
2010-09-03 06:41:20 51°14.579 2°54.987 328.8 9.9 332 12.9
2010-09-03 06:41:26 51°14.594 2°54.973 327.9 10.2 331 12.9
2010-09-03 06:41:30 51°14.604 2°54.963 325.5 10.5 327 12.8
2010-09-03 06:41:34 51°14.614 2°54.953 323.1 10.8 326 12.9
2010-09-03 06:41:40 51°14.629 2°54.936 321.1 11.2 323 12.9
2010-09-03 06:41:45 51°14.641 2°54.92 319.5 11.5 322 12.9
2010-09-03 06:41:50 51°14.654 2°54.904 318.1 11.8 321 12.9
2010-09-03 06:41:55 51°14.667 2°54.888 317.4 11.9 321 12.9
2010-09-03 06:42:00 51°14.681 2°54.872 317.5 12.1 323 12.9
2010-09-03 06:42:06 51°14.697 2°54.852 318.6 12.2 323 12.8
2010-09-03 06:42:10 51°14.708 2°54.839 319.4 12.3 323 13
2010-09-03 06:42:16 51°14.724 2°54.819 319.8 12.4 322 12.9
2010-09-03 06:42:20 51°14.735 2°54.806 318.7 12.4 320 13.1
2010-09-03 06:42:25 51°14.748 2°54.788 316.9 12.4 318 12.9
2010-09-03 06:42:30 51°14.76 2°54.769 314.4 12.3 317 12.9
2010-09-03 06:42:35 51°14.772 2°54.749 312.3 12.4 314 12.9
2010-09-03 06:42:40 51°14.784 2°54.729 310.6 12.4 313 12.8
2010-09-03 06:42:46 51°14.797 2°54.705 308.7 12.3 311 12.9
2010-09-03 06:42:50 51°14.806 2°54.689 307.9 12.3 312 13
2010-09-03 06:42:55 51°14.818 2°54.669 308.7 12.4 314 12.8
2010-09-03 06:43:00 51°14.83 2°54.65 310.3 12.4 316 12.7
2010-09-03 06:43:06 51°14.846 2°54.628 312.5 12.4 318 12.7
2010-09-03 06:43:10 51°14.856 2°54.614 315.2 12.4 320 12.8
2010-09-03 06:43:15 51°14.87 2°54.597 317.7 12.6 322 12.7
2010-09-03 06:43:20 51°14.884 2°54.58 318.9 12.6 323 12.9
2010-09-03 06:43:26 51°14.901 2°54.56 320 12.5 323 12.7
2010-09-03 06:43:30 51°14.912 2°54.547 320.2 12.6 323 12.4
2010-09-03 06:43:35 51°14.926 2°54.531 319.6 12.5 323 11.7
2010-09-03 06:43:40 51°14.94 2°54.514 319.2 12.7 323 11.8
2010-09-03 06:43:45 51°14.954 2°54.497 319.2 12.5 323 11.8
2010-09-03 06:43:50 51°14.968 2°54.48 319.5 12.6 322 11.8
2010-09-03 06:43:56 51°14.984 2°54.459 318.7 12.6 322 11.8
2010-09-03 06:44:00 51°14.995 2°54.446 318.9 12.7 323 11.9
2010-09-03 06:44:05 51°15.009 2°54.428 319.4 12.8 323 11.7
2010-09-03 06:44:10 51°15.023 2°54.412 319.9 12.7 323 11.9
2010-09-03 06:44:15 51°15.037 2°54.395 320.2 12.7 323 11.8
2010-09-03 06:44:20 51°15.052 2°54.379 320.3 12.7 324 11.9
2010-09-03 06:44:26 51°15.069 2°54.359 320.7 12.7 324 11.8
2010-09-03 06:44:30 51°15.08 2°54.346 320.8 12.7 324 11.9
2010-09-03 06:44:36 51°15.098 2°54.326 321.2 12.8 324 11.8
2010-09-03 06:44:40 51°15.109 2°54.313 321.3 12.8 325 11.9
2010-09-03 06:44:45 51°15.124 2°54.297 321.7 12.9 325 12
2010-09-03 06:44:50 51°15.138 2°54.281 321.9 12.8 325 12
2010-09-03 06:44:55 51°15.153 2°54.265 322 12.7 326 12
2010-09-03 06:45:00 51°15.168 2°54.249 322.1 12.8 326 12.2
2010-09-03 06:45:06 51°15.185 2°54.229 322 12.8 325 12.2
2010-09-03 06:45:10 51°15.197 2°54.216 321.9 12.8 325 12.2
2010-09-03 06:45:15 51°15.211 2°54.2 321.7 12.8 326 12.2
2010-09-03 06:45:20 51°15.226 2°54.184 321.8 12.8 325 12.3
2010-09-03 06:45:26 51°15.243 2°54.165 321.8 12.8 325 12.1
2010-09-03 06:45:30 51°15.255 2°54.152 321.9 12.8 325 12.1
2010-09-03 06:45:35 51°15.27 2°54.136 322 12.7 325 12.3
2010-09-03 06:45:40 51°15.284 2°54.12 321.9 12.7 325 12.2
2010-09-03 06:45:46 51°15.302 2°54.101 322 12.8 326 12.3
2010-09-03 06:45:50 51°15.313 2°54.089 322.1 12.7 326 12.3
2010-09-03 06:45:55 51°15.328 2°54.072 322 12.8 325 12.5
2010-09-03 06:46:00 51°15.343 2°54.056 322.1 12.8 325 12.3
2010-09-03 06:46:05 51°15.357 2°54.041 322.1 12.8 326 12.4
2010-09-03 06:46:10 51°15.372 2°54.024 322.1 12.7 325 12.5
2010-09-03 06:46:15 51°15.386 2°54.008 322.1 12.7 325 12.5
2010-09-03 06:46:20 51°15.401 2°53.992 322.1 12.7 325 12.5
2010-09-03 06:46:26 51°15.418 2°53.973 322 12.7 325 12.6
2010-09-03 06:46:30 51°15.43 2°53.96 321.9 12.7 325 12.7
2010-09-03 06:46:35 51°15.444 2°53.944 321.8 12.7 324 12.6
2010-09-03 06:46:40 51°15.459 2°53.927 321.6 12.8 325 12.6
2010-09-03 06:46:46 51°15.476 2°53.908 321.6 12.7 325 12.5
2010-09-03 06:46:50 51°15.488 2°53.895 321.7 12.7 325 12.6
2010-09-03 06:46:55 51°15.502 2°53.879 321.9 12.7 326 12.6
2010-09-03 06:47:01 51°15.519 2°53.859 322.1 12.8 324 12.9
2010-09-03 06:47:06 51°15.534 2°53.843 321.9 12.7 325 12.8
2010-09-03 06:47:10 51°15.546 2°53.831 322.1 12.7 325 12.8
2010-09-03 06:47:15 51°15.56 2°53.815 322.5 12.8 326 12.8
2010-09-03 06:47:20 51°15.575 2°53.799 322.5 12.7 325 12.9
2010-09-03 06:47:26 51°15.592 2°53.78 322.3 12.7 326 12.9
2010-09-03 06:47:30 51°15.604 2°53.767 322.3 12.7 325 12.8
2010-09-03 06:47:35 51°15.618 2°53.751 322.2 12.7 325 12.8
2010-09-03 06:47:40 51°15.633 2°53.735 322.2 12.7 325 12.9
2010-09-03 06:47:46 51°15.65 2°53.716 322 12.7 325 12.9
2010-09-03 06:47:50 51°15.661 2°53.703 321.7 12.7 324 12.9
2010-09-03 06:47:55 51°15.676 2°53.688 322.3 12.7 327 12.8
2010-09-03 06:48:00 51°15.691 2°53.672 323.1 12.7 327 13.2
2010-09-03 06:48:06 51°15.709 2°53.654 324 12.7 328 12.9
2010-09-03 06:48:10 51°15.721 2°53.642 324.5 12.8 328 13.1
2010-09-03 06:48:15 51°15.736 2°53.627 324.6 12.7 328 13
2010-09-03 06:48:20 51°15.751 2°53.612 325.2 12.7 329 12.9
2010-09-03 06:48:26 51°15.769 2°53.594 325.2 12.8 328 13.1
2010-09-03 06:48:30 51°15.781 2°53.584 326.5 12.8 331 12.9
2010-09-03 06:48:35 51°15.796 2°53.57 327 12.8 331 13.1
2010-09-03 06:48:40 51°15.812 2°53.556 327.7 12.8 331 13.2
2010-09-03 06:48:46 51°15.831 2°53.54 328.2 12.8 331 13
2010-09-03 06:48:50 51°15.843 2°53.529 328.6 12.8 332 13.2
2010-09-03 06:48:55 51°15.859 2°53.516 328.9 12.8 332 13.1
2010-09-03 06:49:00 51°15.875 2°53.503 329.1 12.8 333 13
2010-09-03 06:49:06 51°15.893 2°53.487 328.9 12.8 332 13.2
2010-09-03 06:49:10 51°15.906 2°53.477 330 12.7 335 13
2010-09-03 06:49:15 51°15.922 2°53.466 331.9 12.7 335 13.2
2010-09-03 06:49:20 51°15.938 2°53.455 332.9 12.7 338 13.1
2010-09-03 06:49:26 51°15.958 2°53.442 334.1 12.8 337 13.3
2010-09-03 06:49:30 51°15.971 2°53.434 334.9 12.8 339 13.2
2010-09-03 06:49:34 51°15.984 2°53.426 335.9 12.8 338 13.2
2010-09-03 06:49:41 51°16.008 2°53.413 336.1 12.9 340 13.3
2010-09-03 06:49:46 51°16.025 2°53.403 337 12.9 340 13.3
2010-09-03 06:49:50 51°16.038 2°53.395 337.3 13 340 13.3
2010-09-03 06:49:55 51°16.055 2°53.385 337.6 13 340 13.3
2010-09-03 06:50:00 51°16.072 2°53.375 337.6 12.8 340 13.1
2010-09-03 06:50:06 51°16.092 2°53.364 337.6 12.8 340 13.4
2010-09-03 06:50:10 51°16.105 2°53.356 337.6 12.8 340 13.5
2010-09-03 06:50:14 51°16.118 2°53.348 337.3 12.9 340 13.3
2010-09-03 06:50:20 51°16.139 2°53.336 337.3 13 340 13.2
2010-09-03 06:50:25 51°16.156 2°53.327 337.2 13 340 13.4
2010-09-03 06:50:30 51°16.172 2°53.317 337.3 12.9 340 13.3
2010-09-03 06:50:35 51°16.189 2°53.308 337.4 13 340 13.4
2010-09-03 06:50:40 51°16.206 2°53.298 337.3 12.9 340 13.3
2010-09-03 06:50:46 51°16.226 2°53.286 337.1 12.9 340 13.3
2010-09-03 06:50:50 51°16.24 2°53.278 337.1 12.9 340 13.5
2010-09-03 06:50:55 51°16.257 2°53.268 336.9 12.9 340 13.4
2010-09-03 06:51:00 51°16.274 2°53.258 337.1 13 340 13.3
2010-09-03 06:51:05 51°16.29 2°53.249 337.2 12.9 340 13.4
2010-09-03 06:51:10 51°16.307 2°53.239 337.3 12.9 340 13.3
2010-09-03 06:51:15 51°16.324 2°53.23 337.1 12.8 340 13.4
2010-09-03 06:51:20 51°16.341 2°53.221 337.6 12.9 342 13.5
2010-09-03 06:51:25 51°16.357 2°53.211 338.3 12.9 341 13.3
2010-09-03 06:51:30 51°16.375 2°53.203 338.9 12.9 343 13.3
2010-09-03 06:51:35 51°16.392 2°53.194 339.3 12.9 342 13.5
2010-09-03 06:51:40 51°16.409 2°53.186 339.8 12.9 343 13.3
2010-09-03 06:51:46 51°16.43 2°53.177 340.4 13 344 13.4
2010-09-03 06:51:50 51°16.444 2°53.173 342.3 13.1 347 13.4
2010-09-03 06:51:55 51°16.461 2°53.166 343.3 13.1 347 13.5
2010-09-03 06:52:01 51°16.483 2°53.159 344.3 13.1 348 13.3
2010-09-03 06:52:06 51°16.5 2°53.153 345 13.1 348 13.4
2010-09-03 06:52:10 51°16.515 2°53.148 345.6 13.1 349 13.6
2010-09-03 06:52:15 51°16.533 2°53.143 346.4 13.1 350 13.4
2010-09-03 06:52:20 51°16.551 2°53.138 347 13.2 350 13.3
2010-09-03 06:52:26 51°16.572 2°53.132 347.4 13.1 351 13.3
2010-09-03 06:52:30 51°16.587 2°53.128 348.1 13.1 351 13.2
2010-09-03 06:52:35 51°16.605 2°53.123 348.2 13.1 351 13.4
2010-09-03 06:52:40 51°16.623 2°53.118 348.3 13.1 351 13.1
2010-09-03 06:52:46 51°16.644 2°53.112 348.2 13.1 350 13.2
2010-09-03 06:52:50 51°16.659 2°53.109 348 13.1 350 13
2010-09-03 06:52:55 51°16.676 2°53.104 347.7 13.1 351 13.2
2010-09-03 06:53:00 51°16.694 2°53.1 349.1 13.1 352 13
2010-09-03 06:53:05 51°16.712 2°53.096 349.9 13.1 352 13.1
2010-09-03 06:53:10 51°16.73 2°53.094 350.7 13.1 354 12.9
2010-09-03 06:53:15 51°16.748 2°53.09 351 13.2 354 12.9
2010-09-03 06:53:20 51°16.767 2°53.087 351.8 13.2 355 12.5
2010-09-03 06:53:26 51°16.789 2°53.084 352 13.2 355 12.5
2010-09-03 06:53:30 51°16.803 2°53.084 354.5 13.3 -999 12.2
2010-09-03 06:53:35 51°16.822 2°53.084 356.6 13.3 359 11.6
2010-09-03 06:53:40 51°16.841 2°53.085 358.3 13.3 3 10.9
2010-09-03 06:53:45 51°16.859 2°53.086 359.8 13.3 2 10.6
2010-09-03 06:53:50 51°16.877 2°53.087 0.9 13.2 4 10.4
2010-09-03 06:53:55 51°16.895 2°53.089 1.9 13.2 3 10.2
2010-09-03 06:54:00 51°16.914 2°53.092 2.9 13.1 5 10
2010-09-03 06:54:06 51°16.935 2°53.094 3.2 13.1 4 10.3
2010-09-03 06:54:10 51°16.95 2°53.098 4.2 13.2 7 10.1
2010-09-03 06:54:14 51°16.965 2°53.101 4.5 13.3 7 10
2010-09-03 06:54:20 51°16.986 2°53.106 6.1 13.2 11 10
2010-09-03 06:54:26 51°17.007 2°53.114 9.5 13.2 13 10.1
2010-09-03 06:54:30 51°17.022 2°53.12 12.4 13.2 15 10.3
2010-09-03 06:54:35 51°17.039 2°53.129 15.1 13.3 17 10.4
2010-09-03 06:54:40 51°17.057 2°53.139 16.9 13.4 20 10.4
2010-09-03 06:54:46 51°17.078 2°53.151 18.6 13.4 20 10.6
2010-09-03 06:54:50 51°17.091 2°53.16 20.1 13.4 22 10.6
2010-09-03 06:54:55 51°17.108 2°53.172 21.4 13.3 22 10.6
2010-09-03 06:55:00 51°17.125 2°53.183 22.2 13.3 24 10.7
2010-09-03 06:55:06 51°17.146 2°53.198 22.9 13.4 23 10.6
2010-09-03 06:55:10 51°17.159 2°53.208 24.4 13.4 26 10.6
2010-09-03 06:55:15 51°17.176 2°53.222 26.1 13.3 27 10.6
2010-09-03 06:55:20 51°17.192 2°53.236 27 13.4 29 10.7
2010-09-03 06:55:26 51°17.211 2°53.253 28.3 13.3 28 10.6
2010-09-03 06:55:30 51°17.224 2°53.265 29 13.4 30 10.6
2010-09-03 06:55:36 51°17.244 2°53.282 29.4 13.4 30 10.8
2010-09-03 06:55:40 51°17.256 2°53.294 29.7 13.4 30 10.8
2010-09-03 06:55:45 51°17.272 2°53.308 29.8 13.3 30 10.6
2010-09-03 06:55:50 51°17.288 2°53.323 30 13.3 30 10.7
2010-09-03 06:55:55 51°17.304 2°53.338 30 13.3 29 10.9
2010-09-03 06:56:00 51°17.32 2°53.353 29.8 13.5 30 10.9
2010-09-03 06:56:06 51°17.34 2°53.371 29.9 13.6 30 10.8
2010-09-03 06:56:10 51°17.353 2°53.383 30 13.6 30 11
2010-09-03 06:56:15 51°17.37 2°53.397 29.9 13.7 29 11.1
2010-09-03 06:56:21 51°17.39 2°53.415 29.7 13.7 29 11
2010-09-03 06:56:26 51°17.406 2°53.43 29.4 13.8 29 10.9
2010-09-03 06:56:30 51°17.42 2°53.442 29.1 13.7 29 11
2010-09-03 06:56:35 51°17.436 2°53.456 28.8 13.8 28 11
2010-09-03 06:56:40 51°17.453 2°53.471 28.5 13.7 29 11
2010-09-03 06:56:46 51°17.473 2°53.488 28.8 13.8 28 11.2
2010-09-03 06:56:50 51°17.487 2°53.5 28.7 13.8 29 11.1
2010-09-03 06:56:55 51°17.504 2°53.515 28.7 13.9 28 11.2
2010-09-03 06:57:00 51°17.52 2°53.529 28.5 13.9 28 11.2
2010-09-03 06:57:06 51°17.541 2°53.547 28.4 13.8 28 11.1
2010-09-03 06:57:10 51°17.554 2°53.559 28.6 13.8 31 11.2
2010-09-03 06:57:14 51°17.567 2°53.573 31 13.9 33 11.1
2010-09-03 06:57:20 51°17.586 2°53.592 32.2 13.8 33 11.2
2010-09-03 06:57:25 51°17.602 2°53.61 33.7 13.9 34 11.5
2010-09-03 06:57:30 51°17.618 2°53.627 34.6 13.8 35 11.1
2010-09-03 06:57:35 51°17.633 2°53.645 35.5 13.9 35 11.3
2010-09-03 06:57:40 51°17.648 2°53.663 36.1 13.9 36 11.2
2010-09-03 06:57:46 51°17.667 2°53.685 36.9 13.8 36 10.9
2010-09-03 06:57:50 51°17.679 2°53.7 37.1 13.8 36 11.2
2010-09-03 06:57:55 51°17.695 2°53.717 35.7 13.7 35 11.1
2010-09-03 06:58:00 51°17.711 2°53.734 34.9 13.8 33 11.1
2010-09-03 06:58:06 51°17.73 2°53.753 33.8 13.8 33 11.2
2010-09-03 06:58:10 51°17.743 2°53.766 33.4 13.8 33 11.3
2010-09-03 06:58:16 51°17.763 2°53.786 32.5 13.9 32 11.3
2010-09-03 06:58:20 51°17.775 2°53.799 32.4 13.8 32 11.2
2010-09-03 06:58:26 51°17.795 2°53.819 32.4 13.8 34 11.2
2010-09-03 06:58:30 51°17.807 2°53.833 34.2 13.8 35 11.4
2010-09-03 06:58:35 51°17.823 2°53.849 34.2 13.8 35 11.3
2010-09-03 06:58:40 51°17.839 2°53.868 35.5 13.8 36 11.4
2010-09-03 06:58:46 51°17.858 2°53.889 35.7 13.8 35 11.4
2010-09-03 06:58:50 51°17.87 2°53.904 36.3 13.8 37 11.4
2010-09-03 06:58:55 51°17.886 2°53.921 36.4 13.8 35 11.5
2010-09-03 06:59:00 51°17.901 2°53.939 36.6 13.9 36 11.5
2010-09-03 06:59:06 51°17.92 2°53.96 36.3 13.9 35 11.6
2010-09-03 06:59:10 51°17.932 2°53.975 36.6 13.8 37 11.6
2010-09-03 06:59:15 51°17.948 2°53.992 36.5 13.8 35 11.4
2010-09-03 06:59:20 51°17.963 2°54.01 36.4 13.8 36 11.2
2010-09-03 06:59:26 51°17.981 2°54.032 36.5 13.7 36 11.2
2010-09-03 06:59:30 51°17.994 2°54.046 36.4 13.8 36 11.4
2010-09-03 06:59:35 51°18.009 2°54.064 36.4 13.8 37 11.5
2010-09-03 06:59:40 51°18.025 2°54.081 36.3 13.7 35 11.3
2010-09-03 06:59:46 51°18.043 2°54.104 37.1 13.8 38 11.6
2010-09-03 06:59:50 51°18.055 2°54.119 37.7 13.8 37 11.6
2010-09-03 06:59:55 51°18.07 2°54.138 38.4 13.8 39 11.4
2010-09-03 07:00:00 51°18.085 2°54.156 38.6 13.8 37 11.7
2010-09-03 07:00:06 51°18.103 2°54.179 38.6 13.8 39 11.6
2010-09-03 07:00:10 51°18.115 2°54.194 39.2 13.7 38 11.6
2010-09-03 07:00:15 51°18.13 2°54.214 40 13.8 41 11.7
2010-09-03 07:00:20 51°18.144 2°54.233 40.2 13.8 39 11.6
2010-09-03 07:00:25 51°18.159 2°54.254 40.8 13.9 41 11.6
2010-09-03 07:00:30 51°18.173 2°54.273 41.3 13.8 40 11.6
2010-09-03 07:00:35 51°18.188 2°54.293 41.6 13.7 41 11.6
2010-09-03 07:00:40 51°18.202 2°54.312 41.5 13.7 40 11.7
2010-09-03 07:00:46 51°18.22 2°54.336 41.2 13.8 40 11.7
2010-09-03 07:00:50 51°18.231 2°54.352 41.4 13.8 41 11.8
2010-09-03 07:00:55 51°18.246 2°54.371 41.5 13.7 40 11.6
2010-09-03 07:01:01 51°18.264 2°54.395 41.5 13.8 40 11.8
2010-09-03 07:01:06 51°18.278 2°54.416 41.3 13.8 41 11.8
2010-09-03 07:01:10 51°18.29 2°54.431 41.4 13.7 40 11.6
2010-09-03 07:01:15 51°18.304 2°54.45 41.4 13.7 40 11.8
2010-09-03 07:01:20 51°18.319 2°54.47 41.1 13.8 40 11.9
2010-09-03 07:01:26 51°18.336 2°54.494 41.1 13.8 40 11.6
2010-09-03 07:01:30 51°18.348 2°54.51 41.4 13.7 40 11.9
2010-09-03 07:01:35 51°18.362 2°54.529 41.4 13.6 40 11.8
2010-09-03 07:01:40 51°18.377 2°54.548 41.2 13.7 40 11.9
2010-09-03 07:01:46 51°18.394 2°54.572 40.8 13.8 40 11.9
2010-09-03 07:01:50 51°18.407 2°54.588 40.5 13.9 39 11.9
2010-09-03 07:01:55 51°18.421 2°54.606 40.6 13.7 39 11.9
2010-09-03 07:02:00 51°18.436 2°54.626 40.3 13.8 38 12.1
2010-09-03 07:02:05 51°18.451 2°54.644 38.9 13.7 37 12
2010-09-03 07:02:10 51°18.466 2°54.662 38.1 13.7 37 11.9
2010-09-03 07:02:15 51°18.482 2°54.68 37.3 13.7 37 12
2010-09-03 07:02:20 51°18.497 2°54.697 36.4 13.6 35 11.8
2010-09-03 07:02:25 51°18.513 2°54.715 36.2 13.7 35 12.1
2010-09-03 07:02:30 51°18.529 2°54.732 35.7 13.7 34 12
2010-09-03 07:02:35 51°18.544 2°54.749 35.6 13.8 34 12.2
2010-09-03 07:02:40 51°18.56 2°54.767 35.1 13.8 34 12.2
2010-09-03 07:02:46 51°18.579 2°54.787 34.8 13.8 34 12.2
2010-09-03 07:02:50 51°18.592 2°54.801 34.8 13.8 34 12.3
2010-09-03 07:02:55 51°18.608 2°54.818 35 13.7 34 12.1
2010-09-03 07:03:01 51°18.627 2°54.838 34.9 13.8 34 12.4
2010-09-03 07:03:06 51°18.642 2°54.856 35.3 13.8 35 12.2
2010-09-03 07:03:10 51°18.655 2°54.869 35.3 13.8 34 12.4
2010-09-03 07:03:15 51°18.671 2°54.887 35.1 13.8 34 12.3
2010-09-03 07:03:21 51°18.69 2°54.907 35 13.7 34 12.2
2010-09-03 07:03:26 51°18.705 2°54.925 35.1 13.7 35 12.3
2010-09-03 07:03:30 51°18.718 2°54.939 35.5 13.8 35 12.5
2010-09-03 07:03:35 51°18.734 2°54.956 35.4 13.8 35 12.4
2010-09-03 07:03:40 51°18.749 2°54.973 35.5 13.8 35 12.4
2010-09-03 07:03:46 51°18.768 2°54.994 35.7 13.8 34 12.4
2010-09-03 07:03:50 51°18.781 2°55.008 35.5 13.8 34 12.2
2010-09-03 07:03:54 51°18.794 2°55.022 35.2 13.9 35 12.4
2010-09-03 07:04:00 51°18.813 2°55.042 35.2 13.8 34 12.3
2010-09-03 07:04:05 51°18.829 2°55.059 35.2 13.8 35 12.4
2010-09-03 07:04:10 51°18.844 2°55.077 35.5 13.7 34 12.4
2010-09-03 07:04:15 51°18.86 2°55.095 35.7 13.8 36 12.5
2010-09-03 07:04:20 51°18.875 2°55.112 35.8 13.8 35 12.5
2010-09-03 07:04:25 51°18.891 2°55.129 35.5 13.8 35 12.7
2010-09-03 07:04:30 51°18.907 2°55.146 35.4 13.8 34 12.5
2010-09-03 07:04:36 51°18.926 2°55.167 35.4 13.8 34 12.5
2010-09-03 07:04:40 51°18.939 2°55.181 35.2 13.8 34 12.5
2010-09-03 07:04:45 51°18.954 2°55.198 35.1 13.8 35 12.6
2010-09-03 07:04:50 51°18.97 2°55.215 35.2 13.8 34 12.6
2010-09-03 07:04:55 51°18.986 2°55.232 35.3 13.8 35 12.6
2010-09-03 07:05:00 51°19.002 2°55.249 35.5 13.8 35 12.7
2010-09-03 07:05:06 51°19.021 2°55.271 35.5 13.9 35 12.9
2010-09-03 07:05:10 51°19.033 2°55.284 35.4 13.8 34 12.7
2010-09-03 07:05:14 51°19.046 2°55.298 35.3 13.8 35 12.8
2010-09-03 07:05:20 51°19.065 2°55.319 35.8 13.9 35 12.8
2010-09-03 07:05:26 51°19.084 2°55.34 35.8 13.7 35 12.6
2010-09-03 07:05:30 51°19.096 2°55.354 36.1 13.8 35 12.9
2010-09-03 07:05:35 51°19.112 2°55.371 36.3 13.8 35 12.8
2010-09-03 07:05:40 51°19.128 2°55.389 36.6 13.8 35 12.9
2010-09-03 07:05:46 51°19.146 2°55.41 36.6 13.8 35 12.8
2010-09-03 07:05:50 51°19.159 2°55.425 36.6 13.8 35 12.9
2010-09-03 07:05:55 51°19.175 2°55.442 36.4 13.8 35 12.8
2010-09-03 07:06:00 51°19.19 2°55.46 36.2 13.8 35 12.8
2010-09-03 07:06:06 51°19.209 2°55.481 36.1 13.8 35 13
2010-09-03 07:06:10 51°19.222 2°55.496 36.3 13.9 36 13
2010-09-03 07:06:16 51°19.241 2°55.517 36.5 13.8 35 12.9
2010-09-03 07:06:20 51°19.253 2°55.53 36.6 13.8 35 12.9
2010-09-03 07:06:25 51°19.269 2°55.548 36.4 13.8 35 13.1
2010-09-03 07:06:30 51°19.285 2°55.566 36.4 13.9 35 13.1
2010-09-03 07:06:35 51°19.3 2°55.583 36.3 13.9 35 13
2010-09-03 07:06:40 51°19.316 2°55.601 36.2 13.8 35 13
2010-09-03 07:06:46 51°19.335 2°55.622 36.3 13.9 35 13.1
2010-09-03 07:06:50 51°19.347 2°55.637 36.4 13.9 36 13.1
2010-09-03 07:06:55 51°19.363 2°55.655 37.1 13.8 36 13.1
2010-09-03 07:07:00 51°19.378 2°55.673 37.6 13.9 37 13.2
2010-09-03 07:07:06 51°19.397 2°55.695 38.2 13.9 37 13.1
2010-09-03 07:07:10 51°19.409 2°55.71 38.3 13.9 37 13.2
2010-09-03 07:07:15 51°19.424 2°55.729 38.3 13.9 37 13.1
2010-09-03 07:07:20 51°19.44 2°55.747 38.1 13.9 37 13.2
2010-09-03 07:07:26 51°19.458 2°55.77 38.3 13.9 37 13.2
2010-09-03 07:07:30 51°19.47 2°55.784 38.6 13.9 37 13.1
2010-09-03 07:07:35 51°19.485 2°55.803 38.6 13.9 38 13.1
2010-09-03 07:07:40 51°19.501 2°55.821 38.8 13.9 37 13.3
2010-09-03 07:07:46 51°19.519 2°55.844 38.8 13.9 37 13.1
2010-09-03 07:07:50 51°19.531 2°55.859 38.6 13.9 37 13.1
2010-09-03 07:07:55 51°19.547 2°55.878 38.6 13.8 37 13.2
2010-09-03 07:08:00 51°19.562 2°55.896 38.3 13.9 37 13.3
2010-09-03 07:08:06 51°19.581 2°55.919 38.5 14 38 13.3
2010-09-03 07:08:10 51°19.593 2°55.933 38.7 13.9 37 13.1
2010-09-03 07:08:15 51°19.608 2°55.952 38.8 13.9 38 13.3
2010-09-03 07:08:20 51°19.623 2°55.971 39.1 13.9 37 13.2
2010-09-03 07:08:26 51°19.642 2°55.993 38.7 13.9 37 13.3
2010-09-03 07:08:30 51°19.654 2°56.009 38.6 13.9 38 13.3
2010-09-03 07:08:35 51°19.669 2°56.027 38.8 13.9 37 13.3
2010-09-03 07:08:40 51°19.684 2°56.046 38.6 13.9 38 13.4
2010-09-03 07:08:46 51°19.703 2°56.068 38.5 13.9 37 13.5
2010-09-03 07:08:50 51°19.715 2°56.083 38.3 13.9 37 13.3
2010-09-03 07:08:55 51°19.73 2°56.101 38.7 13.8 36 13.5
2010-09-03 07:09:00 51°19.746 2°56.12 38.5 13.9 37 13.3
2010-09-03 07:09:06 51°19.765 2°56.14 37 13.8 32 13.1
2010-09-03 07:09:10 51°19.778 2°56.154 35.3 13.8 34 13.5
2010-09-03 07:09:15 51°19.794 2°56.17 34 13.8 31 13.3
2010-09-03 07:09:20 51°19.811 2°56.185 32 13.8 30 13.4
2010-09-03 07:09:25 51°19.828 2°56.199 30 13.8 28 13.5
2010-09-03 07:09:30 51°19.845 2°56.213 28.6 13.8 27 13.5
2010-09-03 07:09:35 51°19.862 2°56.226 27.2 13.8 24 13.5
2010-09-03 07:09:40 51°19.88 2°56.237 24.8 13.8 22 13.6
2010-09-03 07:09:46 51°19.901 2°56.25 23 13.8 21 13.5
2010-09-03 07:09:50 51°19.915 2°56.259 21.5 13.8 20 13.4
2010-09-03 07:09:55 51°19.934 2°56.269 20.4 13.8 19 13.5
2010-09-03 07:10:01 51°19.955 2°56.28 19.3 13.8 19 13.6
2010-09-03 07:10:06 51°19.974 2°56.289 18.5 13.8 17 13.8
2010-09-03 07:10:10 51°19.988 2°56.296 17.9 13.8 18 13.7
2010-09-03 07:10:15 51°20.007 2°56.305 17.4 13.8 16 13.6
2010-09-03 07:10:20 51°20.025 2°56.314 16.9 13.8 17 13.7
2010-09-03 07:10:26 51°20.047 2°56.324 17 13.8 16 13.8
2010-09-03 07:10:30 51°20.061 2°56.331 17 13.9 17 13.8
2010-09-03 07:10:35 51°20.08 2°56.34 16.9 13.8 17 13.6
2010-09-03 07:10:40 51°20.098 2°56.349 17 13.9 17 13.8
2010-09-03 07:10:46 51°20.12 2°56.36 17.3 13.8 17 13.4
2010-09-03 07:10:50 51°20.135 2°56.367 17.5 13.8 17 14
2010-09-03 07:10:55 51°20.153 2°56.376 17.5 13.8 17 13.8
2010-09-03 07:11:00 51°20.171 2°56.385 17.6 13.8 17 13.8
2010-09-03 07:11:05 51°20.19 2°56.394 17.6 13.8 17 13.8
2010-09-03 07:11:10 51°20.208 2°56.403 17.4 13.9 17 14
2010-09-03 07:11:15 51°20.227 2°56.412 17.5 13.9 17 14
2010-09-03 07:11:20 51°20.245 2°56.421 17.6 13.9 18 13.9
2010-09-03 07:11:25 51°20.263 2°56.431 17.6 13.9 17 13.9
2010-09-03 07:11:30 51°20.282 2°56.44 17.7 13.9 18 14
2010-09-03 07:11:35 51°20.3 2°56.449 17.8 13.8 18 13.8
2010-09-03 07:11:40 51°20.319 2°56.459 18.1 13.9 18 13.9
2010-09-03 07:11:46 51°20.34 2°56.469 18.1 13.9 18 14
2010-09-03 07:11:50 51°20.355 2°56.477 17.9 13.9 18 14
2010-09-03 07:11:55 51°20.373 2°56.486 17.9 13.8 18 13.9
2010-09-03 07:12:01 51°20.396 2°56.497 18.1 13.9 18 14.3
2010-09-03 07:12:06 51°20.414 2°56.507 18.2 13.9 18 14
2010-09-03 07:12:10 51°20.428 2°56.514 18.3 13.9 18 13.8
2010-09-03 07:12:15 51°20.447 2°56.523 18.4 13.8 18 14.2
2010-09-03 07:12:20 51°20.465 2°56.533 18.3 13.8 18 14.2
2010-09-03 07:12:26 51°20.487 2°56.545 18.5 13.9 18 14.1
2010-09-03 07:12:30 51°20.501 2°56.553 18.8 13.8 19 14.2
2010-09-03 07:12:35 51°20.519 2°56.562 19 13.8 18 14.3
2010-09-03 07:12:40 51°20.537 2°56.572 18.7 13.8 19 14.2
2010-09-03 07:12:46 51°20.559 2°56.583 18.9 13.8 18 14.1
2010-09-03 07:12:50 51°20.574 2°56.591 18.8 13.9 18 14.2
2010-09-03 07:12:54 51°20.589 2°56.598 18.7 13.8 18 14.1
2010-09-03 07:13:00 51°20.61 2°56.61 18.6 13.9 18 14.3
2010-09-03 07:13:05 51°20.628 2°56.62 18.8 13.9 19 14.3
2010-09-03 07:13:10 51°20.647 2°56.629 19 13.9 18 14.3
2010-09-03 07:13:15 51°20.665 2°56.64 19.5 13.9 20 14.3
2010-09-03 07:13:20 51°20.683 2°56.65 20.5 13.9 19 14.5
2010-09-03 07:13:25 51°20.701 2°56.661 20.5 13.9 21 14.5
2010-09-03 07:13:30 51°20.719 2°56.673 22 13.9 22 14.5
2010-09-03 07:13:36 51°20.74 2°56.687 22.4 13.8 24 14.5
2010-09-03 07:13:40 51°20.754 2°56.696 23.3 13.8 22 14.5
2010-09-03 07:13:45 51°20.772 2°56.708 23.5 13.9 24 14.7
2010-09-03 07:13:50 51°20.789 2°56.721 24 13.8 23 14.5
2010-09-03 07:13:55 51°20.807 2°56.733 24.3 13.8 24 14.5
2010-09-03 07:14:00 51°20.824 2°56.745 24.3 13.8 23 14.3
2010-09-03 07:14:06 51°20.845 2°56.76 24.3 13.8 24 14.5
2010-09-03 07:14:10 51°20.859 2°56.77 24.3 13.8 24 14.8
2010-09-03 07:14:14 51°20.873 2°56.781 25.2 13.8 26 14.6
2010-09-03 07:14:20 51°20.894 2°56.796 26 13.8 25 14.8
2010-09-03 07:14:26 51°20.914 2°56.813 26.9 13.9 27 14.7
2010-09-03 07:14:30 51°20.928 2°56.824 27.6 13.8 26 14.5
2010-09-03 07:14:35 51°20.945 2°56.839 27.9 13.8 28 14.8
2010-09-03 07:14:40 51°20.962 2°56.853 28.4 13.8 28 14.7
2010-09-03 07:14:46 51°20.982 2°56.87 28.7 13.8 28 14.8
2010-09-03 07:14:50 51°20.995 2°56.882 29.5 13.8 29 14.7
2010-09-03 07:14:55 51°21.012 2°56.898 30.2 13.8 30 14.9
2010-09-03 07:15:00 51°21.029 2°56.913 30.8 13.8 31 14.7
2010-09-03 07:15:06 51°21.048 2°56.932 31.4 13.7 30 14.7
2010-09-03 07:15:10 51°21.061 2°56.945 31.9 13.7 32 14.9
2010-09-03 07:15:16 51°21.081 2°56.964 32.2 13.8 32 14.9
2010-09-03 07:15:20 51°21.093 2°56.977 33.3 13.8 33 15
2010-09-03 07:15:25 51°21.109 2°56.994 33.7 13.8 33 14.9
2010-09-03 07:15:30 51°21.125 2°57.011 34.2 13.8 34 15
2010-09-03 07:15:35 51°21.141 2°57.027 34.9 13.8 33 14.9
2010-09-03 07:15:40 51°21.157 2°57.045 34.7 13.8 35 15
2010-09-03 07:15:46 51°21.176 2°57.065 35.1 13.8 33 14.9
2010-09-03 07:15:50 51°21.189 2°57.079 35.2 13.8 35 15
2010-09-03 07:15:55 51°21.205 2°57.096 35.3 13.8 34 15.1
2010-09-03 07:16:00 51°21.221 2°57.113 35.2 13.8 33 15
2010-09-03 07:16:06 51°21.24 2°57.134 35 13.8 35 15.2
2010-09-03 07:16:10 51°21.253 2°57.146 34.9 13.8 32 15
2010-09-03 07:16:15 51°21.268 2°57.164 35 13.8 34 15
2010-09-03 07:16:20 51°21.284 2°57.181 34.9 13.8 34 15.2
2010-09-03 07:16:26 51°21.303 2°57.201 35.2 13.8 33 15.2
2010-09-03 07:16:30 51°21.316 2°57.215 34.9 13.8 34 15.3
2010-09-03 07:16:35 51°21.332 2°57.231 34.9 13.8 33 15.2
2010-09-03 07:16:40 51°21.348 2°57.249 34.9 13.8 35 15.3
2010-09-03 07:16:46 51°21.367 2°57.269 34.9 13.8 34 15.3
2010-09-03 07:16:50 51°21.38 2°57.283 35.2 13.8 34 15.1
2010-09-03 07:16:55 51°21.396 2°57.299 34.9 13.7 34 15.5
2010-09-03 07:17:00 51°21.412 2°57.316 35 13.7 33 15.2
2010-09-03 07:17:06 51°21.431 2°57.337 34.9 13.8 34 15.5
2010-09-03 07:17:10 51°21.443 2°57.351 35.2 13.8 34 15.5
2010-09-03 07:17:15 51°21.459 2°57.368 35.1 13.8 34 15.6
2010-09-03 07:17:20 51°21.475 2°57.384 34.8 13.8 34 15.5
2010-09-03 07:17:26 51°21.494 2°57.405 34.9 13.8 34 15.5
2010-09-03 07:17:30 51°21.507 2°57.419 34.9 13.8 34 15.3
2010-09-03 07:17:35 51°21.523 2°57.435 34.8 13.8 33 15.5
2010-09-03 07:17:40 51°21.539 2°57.452 34.6 13.7 34 15.2
2010-09-03 07:17:46 51°21.558 2°57.473 34.6 13.8 34 15.5
2010-09-03 07:17:50 51°21.57 2°57.486 34.7 13.7 34 15.7
2010-09-03 07:17:55 51°21.586 2°57.503 34.7 13.8 34 15.9
2010-09-03 07:18:00 51°21.602 2°57.519 34.4 13.8 33 15.9
2010-09-03 07:18:06 51°21.622 2°57.54 34.2 13.8 33 15.7
2010-09-03 07:18:10 51°21.634 2°57.553 34.4 13.8 34 15.7
2010-09-03 07:18:15 51°21.65 2°57.57 34.7 13.8 33 15.6
2010-09-03 07:18:20 51°21.666 2°57.587 34.5 13.8 34 15.9
2010-09-03 07:18:25 51°21.682 2°57.604 34.8 13.8 33 15.9
2010-09-03 07:18:30 51°21.698 2°57.621 34.7 13.8 34 15.9
2010-09-03 07:18:35 51°21.714 2°57.638 34.9 13.8 34 15.8
2010-09-03 07:18:40 51°21.73 2°57.656 34.9 13.9 34 15.9
2010-09-03 07:18:46 51°21.749 2°57.676 35.1 13.9 35 15.8
2010-09-03 07:18:50 51°21.761 2°57.691 35.7 13.9 36 15.9
2010-09-03 07:18:55 51°21.777 2°57.708 36 13.9 36 16
2010-09-03 07:19:01 51°21.796 2°57.729 36.5 13.8 35 16.1
2010-09-03 07:19:06 51°21.812 2°57.748 36.3 13.9 36 16.2
2010-09-03 07:19:10 51°21.824 2°57.762 36.6 13.9 36 15.9
2010-09-03 07:19:15 51°21.84 2°57.779 36.4 13.8 36 15.9
2010-09-03 07:19:20 51°21.855 2°57.797 36.5 13.8 35 15.9
2010-09-03 07:19:26 51°21.874 2°57.819 36.5 13.9 37 16
2010-09-03 07:19:30 51°21.887 2°57.833 36.7 13.8 35 16
2010-09-03 07:19:35 51°21.902 2°57.851 36.5 13.8 37 16.2
2010-09-03 07:19:40 51°21.917 2°57.869 36.7 13.8 36 16.2
2010-09-03 07:19:45 51°21.933 2°57.887 36.8 13.9 37 16.4
2010-09-03 07:19:50 51°21.949 2°57.905 36.7 13.8 36 16.3
2010-09-03 07:19:55 51°21.964 2°57.923 36.6 13.9 36 16.3
2010-09-03 07:20:00 51°21.98 2°57.941 36.4 13.8 35 16.3
2010-09-03 07:20:05 51°21.996 2°57.959 36.4 13.9 36 16.3
2010-09-03 07:20:10 51°22.011 2°57.976 36.4 13.9 35 16
2010-09-03 07:20:15 51°22.027 2°57.995 36.6 13.9 36 16.4
2010-09-03 07:20:20 51°22.043 2°58.013 36.4 13.9 35 16.4
2010-09-03 07:20:26 51°22.061 2°58.034 36.3 13.9 35 16.6
2010-09-03 07:20:30 51°22.074 2°58.047 35.7 13.8 34 16.7
2010-09-03 07:20:35 51°22.089 2°58.066 36.4 13.8 36 16.7
2010-09-03 07:20:40 51°22.105 2°58.083 36.3 13.9 35 16.9
2010-09-03 07:20:46 51°22.124 2°58.105 36.6 13.8 35 16.6
2010-09-03 07:20:50 51°22.137 2°58.119 36 13.8 35 16.9
2010-09-03 07:20:54 51°22.149 2°58.134 36.6 13.9 36 17.2
2010-09-03 07:21:00 51°22.168 2°58.154 36.1 13.9 35 17.2
2010-09-03 07:21:06 51°22.187 2°58.176 36.4 13.9 35 17.3
2010-09-03 07:21:10 51°22.199 2°58.19 36.4 13.9 35 17
2010-09-03 07:21:15 51°22.215 2°58.209 36.5 13.8 35 16.9
2010-09-03 07:21:21 51°22.234 2°58.23 36.1 13.9 36 17.5
2010-09-03 07:21:26 51°22.249 2°58.248 36.6 13.8 36 17.1
2010-09-03 07:21:30 51°22.262 2°58.261 36.2 13.8 34 17.1
2010-09-03 07:21:34 51°22.274 2°58.276 36.4 13.8 36 17.3
2010-09-03 07:21:40 51°22.293 2°58.297 36.4 13.8 35 17.2
2010-09-03 07:21:46 51°22.312 2°58.319 36.3 13.8 36 17.5
2010-09-03 07:21:50 51°22.324 2°58.333 36.3 13.8 35 17.1
2010-09-03 07:21:55 51°22.34 2°58.351 36.6 13.8 36 17.2
2010-09-03 07:22:00 51°22.356 2°58.368 36.4 13.8 35 17.3
2010-09-03 07:22:06 51°22.374 2°58.39 36.4 13.8 36 17.4
2010-09-03 07:22:10 51°22.387 2°58.403 36.1 13.8 34 17.1
2010-09-03 07:22:16 51°22.405 2°58.425 36.4 13.8 36 17.4
2010-09-03 07:22:20 51°22.418 2°58.439 36.4 13.8 35 17.3
2010-09-03 07:22:25 51°22.434 2°58.457 36.5 13.9 36 17.5
2010-09-03 07:22:30 51°22.45 2°58.475 36.3 13.9 35 17.6
2010-09-03 07:22:35 51°22.465 2°58.493 36.3 13.9 36 17.8
2010-09-03 07:22:40 51°22.481 2°58.51 36.1 13.8 34 17.6
2010-09-03 07:22:46 51°22.5 2°58.532 35.8 13.9 36 17.7
2010-09-03 07:22:50 51°22.513 2°58.545 36.3 13.9 34 17.7
2010-09-03 07:22:55 51°22.528 2°58.563 35.9 14 36 18
2010-09-03 07:23:01 51°22.548 2°58.584 36.3 13.9 34 17.7
2010-09-03 07:23:06 51°22.563 2°58.602 36.3 14 36 18.1
2010-09-03 07:23:10 51°22.576 2°58.617 36.4 14 35 18
2010-09-03 07:23:14 51°22.589 2°58.63 36.1 13.9 36 18
2010-09-03 07:23:21 51°22.611 2°58.655 36.5 13.9 35 18.2
2010-09-03 07:23:26 51°22.626 2°58.674 36.4 13.9 35 18.1
2010-09-03 07:23:30 51°22.639 2°58.688 36.4 13.9 36 18.4
2010-09-03 07:23:35 51°22.655 2°58.706 36.2 14 35 18.3
2010-09-03 07:23:40 51°22.671 2°58.723 36.2 13.9 35 18.3
2010-09-03 07:23:46 51°22.69 2°58.744 36 13.9 35 18.2
2010-09-03 07:23:50 51°22.702 2°58.758 36.1 13.9 35 18.3
2010-09-03 07:23:55 51°22.718 2°58.776 36.2 14 35 18.3
2010-09-03 07:24:00 51°22.734 2°58.795 36.5 13.9 36 18.5
2010-09-03 07:24:05 51°22.75 2°58.812 36.6 13.9 35 18.4
2010-09-03 07:24:10 51°22.765 2°58.83 36.6 14 35 18.4
2010-09-03 07:24:15 51°22.781 2°58.848 36.6 13.9 36 18.5
2010-09-03 07:24:20 51°22.797 2°58.866 36.6 13.9 36 18.6
2010-09-03 07:24:25 51°22.812 2°58.884 36.6 14 37 18.7
2010-09-03 07:24:30 51°22.828 2°58.904 37.9 14 37 18.7
2010-09-03 07:24:35 51°22.843 2°58.922 38.3 13.9 38 18.7
2010-09-03 07:24:40 51°22.858 2°58.941 38.7 13.9 38 18.8
2010-09-03 07:24:46 51°22.877 2°58.964 39.3 14 38 18.8
2010-09-03 07:24:50 51°22.889 2°58.979 39.3 13.9 38 18.6
2010-09-03 07:24:55 51°22.904 2°58.998 39.8 13.9 38 18.9
2010-09-03 07:25:00 51°22.919 2°59.018 39.9 13.9 39 18.8
2010-09-03 07:25:06 51°22.937 2°59.041 40 13.9 38 18.8
2010-09-03 07:25:10 51°22.949 2°59.056 39.7 13.9 38 18.9
2010-09-03 07:25:15 51°22.964 2°59.075 39.7 14 38 18.9
2010-09-03 07:25:20 51°22.98 2°59.094 39.5 14 38 18.8
2010-09-03 07:25:26 51°22.998 2°59.118 39.3 14 39 19
2010-09-03 07:25:30 51°23.01 2°59.133 40 14 39 19
2010-09-03 07:25:35 51°23.025 2°59.153 40.5 14 40 19
2010-09-03 07:25:40 51°23.04 2°59.173 41.2 14 39 19.2
2010-09-03 07:25:46 51°23.057 2°59.197 41.1 14 41 19.2
2010-09-03 07:25:50 51°23.069 2°59.213 41.6 14 41 19.3
2010-09-03 07:25:55 51°23.084 2°59.233 41.5 14 40 19.1
2010-09-03 07:26:01 51°23.102 2°59.258 41.5 14 41 19.2
2010-09-03 07:26:06 51°23.117 2°59.277 41.6 14 40 19.2
2010-09-03 07:26:10 51°23.129 2°59.293 41.5 14 40 19.2
2010-09-03 07:26:15 51°23.143 2°59.313 41.6 14 40 19.5
2010-09-03 07:26:20 51°23.158 2°59.334 42.3 14 42 19.4
2010-09-03 07:26:25 51°23.172 2°59.355 42.7 14 41 19.4
2010-09-03 07:26:30 51°23.187 2°59.375 43 14 42 19.3
2010-09-03 07:26:35 51°23.201 2°59.396 43.4 14 42 19.4
2010-09-03 07:26:40 51°23.215 2°59.417 43.6 14 42 19.3
2010-09-03 07:26:46 51°23.232 2°59.442 43.7 14 43 19.3
2010-09-03 07:26:50 51°23.244 2°59.459 43.9 14 43 19.4
2010-09-03 07:26:55 51°23.258 2°59.48 44 14 43 19.2
2010-09-03 07:27:00 51°23.272 2°59.501 44.2 14 42 19.4
2010-09-03 07:27:06 51°23.29 2°59.526 43.6 14 42 19.3
2010-09-03 07:27:10 51°23.301 2°59.543 43.7 14 43 19.3
2010-09-03 07:27:15 51°23.316 2°59.564 44 14 41 19.3
2010-09-03 07:27:20 51°23.33 2°59.585 43.7 14 42 19.3
2010-09-03 07:27:25 51°23.345 2°59.605 43.2 14 41 19.5
2010-09-03 07:27:30 51°23.359 2°59.625 42.5 14 41 19.9
2010-09-03 07:27:35 51°23.374 2°59.645 41.6 14 40 19.4
2010-09-03 07:27:40 51°23.389 2°59.665 41.6 14 40 19.6
2010-09-03 07:27:46 51°23.407 2°59.689 41.2 13.9 40 19.5
2010-09-03 07:27:50 51°23.419 2°59.705 41 14 40 19.6
2010-09-03 07:27:55 51°23.434 2°59.725 41.2 14 39 19.4
2010-09-03 07:28:01 51°23.452 2°59.749 40.9 14 40 19.5
2010-09-03 07:28:06 51°23.467 2°59.766 39.3 13.9 36 19.5
2010-09-03 07:28:10 51°23.479 2°59.782 38.6 14 38 19.6
2010-09-03 07:28:15 51°23.496 2°59.799 37.8 13.9 35 19.6
2010-09-03 07:28:20 51°23.511 2°59.818 37.1 14 37 19.7
2010-09-03 07:28:26 51°23.53 2°59.839 37 14 34 19.8
2010-09-03 07:28:30 51°23.543 2°59.854 36.2 14 36 19.8
2010-09-03 07:28:35 51°23.559 2°59.871 36.1 14 35 19.8
2010-09-03 07:28:40 51°23.574 2°59.889 36 14 35 20
2010-09-03 07:28:45 51°23.59 2°59.907 35.9 14 35 19.9
2010-09-03 07:28:50 51°23.606 2°59.925 35.8 14 35 19.7
2010-09-03 07:28:55 51°23.622 2°59.943 35.9 14 35 19.7
2010-09-03 07:29:00 51°23.638 2°59.96 36 14 35 19.7
2010-09-03 07:29:05 51°23.654 2°59.978 36 14 34 19.5
2010-09-03 07:29:10 51°23.67 2°59.996 35.7 14 35 19.9
2010-09-03 07:29:15 51°23.686 3°0.013 36 14 35 19.7
2010-09-03 07:29:20 51°23.702 3°0.031 35.8 14 35 19.8
2010-09-03 07:29:26 51°23.721 3°0.053 35.8 14.1 35 20.1
2010-09-03 07:29:30 51°23.734 3°0.067 36 14 35 19.9
2010-09-03 07:29:35 51°23.75 3°0.085 35.8 14 35 19.8
2010-09-03 07:29:40 51°23.766 3°0.102 36.2 14 35 20.1
2010-09-03 07:29:46 51°23.785 3°0.124 36.2 14 35 20
2010-09-03 07:29:50 51°23.798 3°0.138 36.1 14 35 19.9
2010-09-03 07:29:55 51°23.813 3°0.156 36 14 35 20
2010-09-03 07:30:01 51°23.832 3°0.177 36 14 35 19.7
2010-09-03 07:30:06 51°23.849 3°0.195 36.1 14.1 35 19.7
2010-09-03 07:30:10 51°23.861 3°0.21 35.9 14.1 35 19.6
2010-09-03 07:30:14 51°23.874 3°0.225 36.3 14 35 19.5
2010-09-03 07:30:20 51°23.893 3°0.245 36.1 14 35 19.3
2010-09-03 07:30:26 51°23.912 3°0.267 35.9 14 35 19.6
2010-09-03 07:30:30 51°23.925 3°0.282 36.3 14 36 18.9
2010-09-03 07:30:35 51°23.94 3°0.3 36.6 14 36 19.1
2010-09-03 07:30:40 51°23.956 3°0.318 36.5 14 35 19.1
2010-09-03 07:30:46 51°23.975 3°0.339 36.3 13.9 35 18.6
2010-09-03 07:30:50 51°23.987 3°0.353 36.1 13.8 34 18.7
2010-09-03 07:30:55 51°24.003 3°0.37 35.8 13.9 35 18.7
2010-09-03 07:31:00 51°24.019 3°0.389 36.1 14 35 18.8
2010-09-03 07:31:05 51°24.035 3°0.406 36.2 13.9 35 18.4
2010-09-03 07:31:10 51°24.051 3°0.424 36.4 14 35 18.3
2010-09-03 07:31:15 51°24.066 3°0.442 36.2 14 35 18.5
2010-09-03 07:31:20 51°24.082 3°0.46 36.1 14 35 18.1
2010-09-03 07:31:25 51°24.098 3°0.478 35.8 14 35 18.3
2010-09-03 07:31:30 51°24.114 3°0.496 35.9 14 35 18
2010-09-03 07:31:35 51°24.13 3°0.513 35.9 14 35 18.2
2010-09-03 07:31:40 51°24.146 3°0.531 35.9 14.1 35 18.2
2010-09-03 07:31:46 51°24.165 3°0.553 36.1 14 35 18
2010-09-03 07:31:50 51°24.178 3°0.567 36.1 14 35 18
2010-09-03 07:31:55 51°24.194 3°0.585 36.2 14.1 35 17.9
2010-09-03 07:32:01 51°24.213 3°0.606 36 14.1 35 17.9
2010-09-03 07:32:06 51°24.228 3°0.624 35.9 13.9 36 17.6
2010-09-03 07:32:10 51°24.241 3°0.638 36.4 13.9 35 17.8
2010-09-03 07:32:15 51°24.257 3°0.656 36.1 14 35 17.6
2010-09-03 07:32:20 51°24.273 3°0.674 36.1 14.1 35 17.6
2010-09-03 07:32:26 51°24.292 3°0.695 35.9 14 35 17.6
2010-09-03 07:32:30 51°24.305 3°0.709 35.9 14 35 17.5
2010-09-03 07:32:35 51°24.321 3°0.727 36 14 35 17.5
2010-09-03 07:32:40 51°24.337 3°0.745 36.2 14 35 17.5
2010-09-03 07:32:46 51°24.356 3°0.766 36.2 13.9 35 17.6
2010-09-03 07:32:50 51°24.369 3°0.781 36 13.9 35 17.5
2010-09-03 07:32:55 51°24.384 3°0.799 36.4 13.9 35 17.4
2010-09-03 07:33:00 51°24.4 3°0.817 36.5 13.9 36 17.4
2010-09-03 07:33:05 51°24.415 3°0.835 36.8 13.8 36 17.2
2010-09-03 07:33:10 51°24.431 3°0.853 36.7 13.8 36 17.3
2010-09-03 07:33:15 51°24.446 3°0.87 36.7 13.8 36 17.3
2010-09-03 07:33:20 51°24.462 3°0.888 36.4 13.7 35 17.2
2010-09-03 07:33:25 51°24.478 3°0.905 36.1 13.6 35 17.2
2010-09-03 07:33:30 51°24.494 3°0.923 36 13.7 35 17.3
2010-09-03 07:33:35 51°24.51 3°0.94 35.7 13.8 35 17.7
2010-09-03 07:33:40 51°24.525 3°0.958 35.8 13.6 35 17.2